sensor_id;sensor_type;location;lat;lon;timestamp;P1;durP1;ratioP1;P2;durP2;ratioP2
59416;SDS011;45222;52.458;20.914;2023-08-06T00:03:32;19.00;;;11.10;;
59416;SDS011;45222;52.458;20.914;2023-08-06T00:07:20;16.80;;;10.60;;
59416;SDS011;45222;52.458;20.914;2023-08-06T00:11:07;15.70;;;11.20;;
59416;SDS011;45222;52.458;20.914;2023-08-06T00:14:56;19.10;;;11.60;;
59416;SDS011;45222;52.458;20.914;2023-08-06T00:18:44;17.40;;;11.20;;
59416;SDS011;45222;52.458;20.914;2023-08-06T00:22:32;21.60;;;12.00;;
59416;SDS011;45222;52.458;20.914;2023-08-06T00:30:07;19.80;;;12.30;;
59416;SDS011;45222;52.458;20.914;2023-08-06T00:33:56;20.30;;;13.20;;
59416;SDS011;45222;52.458;20.914;2023-08-06T00:37:44;17.90;;;12.60;;
59416;SDS011;45222;52.458;20.914;2023-08-06T00:45:20;17.50;;;12.70;;
59416;SDS011;45222;52.458;20.914;2023-08-06T00:49:08;17.10;;;12.60;;
59416;SDS011;45222;52.458;20.914;2023-08-06T00:52:57;15.30;;;11.40;;
59416;SDS011;45222;52.458;20.914;2023-08-06T00:56:45;14.60;;;10.40;;
59416;SDS011;45222;52.458;20.914;2023-08-06T01:00:34;13.40;;;10.40;;
59416;SDS011;45222;52.458;20.914;2023-08-06T01:04:22;11.80;;;9.10;;
59416;SDS011;45222;52.458;20.914;2023-08-06T01:08:15;12.10;;;8.90;;
59416;SDS011;45222;52.458;20.914;2023-08-06T01:12:15;11.10;;;8.40;;
59416;SDS011;45222;52.458;20.914;2023-08-06T01:16:11;11.70;;;8.70;;
59416;SDS011;45222;52.458;20.914;2023-08-06T01:20:00;10.40;;;8.00;;
59416;SDS011;45222;52.458;20.914;2023-08-06T01:23:48;10.40;;;7.10;;
59416;SDS011;45222;52.458;20.914;2023-08-06T01:27:38;10.70;;;7.60;;
59416;SDS011;45222;52.458;20.914;2023-08-06T01:31:31;10.00;;;6.90;;
59416;SDS011;45222;52.458;20.914;2023-08-06T01:35:23;9.70;;;7.00;;
59416;SDS011;45222;52.458;20.914;2023-08-06T01:39:12;8.70;;;6.40;;
59416;SDS011;45222;52.458;20.914;2023-08-06T01:43:00;9.50;;;6.40;;
59416;SDS011;45222;52.458;20.914;2023-08-06T01:46:48;8.90;;;6.50;;
59416;SDS011;45222;52.458;20.914;2023-08-06T01:50:36;9.40;;;6.50;;
59416;SDS011;45222;52.458;20.914;2023-08-06T01:54:24;9.40;;;6.20;;
59416;SDS011;45222;52.458;20.914;2023-08-06T02:01:59;8.30;;;5.60;;
59416;SDS011;45222;52.458;20.914;2023-08-06T02:05:47;8.60;;;5.50;;
59416;SDS011;45222;52.458;20.914;2023-08-06T02:09:36;7.80;;;5.40;;
59416;SDS011;45222;52.458;20.914;2023-08-06T02:13:25;8.50;;;6.00;;
59416;SDS011;45222;52.458;20.914;2023-08-06T02:17:12;8.50;;;5.70;;
59416;SDS011;45222;52.458;20.914;2023-08-06T02:21:01;9.40;;;5.40;;
59416;SDS011;45222;52.458;20.914;2023-08-06T02:24:50;8.60;;;5.90;;
59416;SDS011;45222;52.458;20.914;2023-08-06T02:28:38;9.70;;;5.60;;
59416;SDS011;45222;52.458;20.914;2023-08-06T02:32:26;10.30;;;5.70;;
59416;SDS011;45222;52.458;20.914;2023-08-06T02:36:16;8.80;;;5.50;;
59416;SDS011;45222;52.458;20.914;2023-08-06T02:40:05;10.10;;;6.00;;
59416;SDS011;45222;52.458;20.914;2023-08-06T02:43:53;7.40;;;5.50;;
59416;SDS011;45222;52.458;20.914;2023-08-06T02:47:41;8.60;;;6.10;;
59416;SDS011;45222;52.458;20.914;2023-08-06T02:51:29;9.40;;;6.10;;
59416;SDS011;45222;52.458;20.914;2023-08-06T02:55:17;9.40;;;6.80;;
59416;SDS011;45222;52.458;20.914;2023-08-06T02:59:05;9.50;;;7.10;;
59416;SDS011;45222;52.458;20.914;2023-08-06T03:02:53;12.40;;;7.10;;
59416;SDS011;45222;52.458;20.914;2023-08-06T03:06:42;12.00;;;7.30;;
59416;SDS011;45222;52.458;20.914;2023-08-06T03:10:29;10.40;;;7.70;;
59416;SDS011;45222;52.458;20.914;2023-08-06T03:14:17;11.40;;;8.00;;
59416;SDS011;45222;52.458;20.914;2023-08-06T03:18:05;10.60;;;7.70;;
59416;SDS011;45222;52.458;20.914;2023-08-06T03:21:53;12.20;;;8.00;;
59416;SDS011;45222;52.458;20.914;2023-08-06T03:25:41;14.10;;;9.30;;
59416;SDS011;45222;52.458;20.914;2023-08-06T03:29:29;13.00;;;9.40;;
59416;SDS011;45222;52.458;20.914;2023-08-06T03:33:17;13.50;;;10.20;;
59416;SDS011;45222;52.458;20.914;2023-08-06T03:37:05;15.50;;;10.90;;
59416;SDS011;45222;52.458;20.914;2023-08-06T03:40:53;13.90;;;10.50;;
59416;SDS011;45222;52.458;20.914;2023-08-06T03:44:41;15.50;;;11.80;;
59416;SDS011;45222;52.458;20.914;2023-08-06T03:48:29;15.50;;;12.10;;
59416;SDS011;45222;52.458;20.914;2023-08-06T03:52:17;14.70;;;12.40;;
59416;SDS011;45222;52.458;20.914;2023-08-06T03:56:05;14.80;;;12.00;;
59416;SDS011;45222;52.458;20.914;2023-08-06T03:59:53;15.90;;;12.80;;
59416;SDS011;45222;52.458;20.914;2023-08-06T04:03:41;14.20;;;11.90;;
59416;SDS011;45222;52.458;20.914;2023-08-06T04:07:29;15.00;;;11.50;;
59416;SDS011;45222;52.458;20.914;2023-08-06T04:11:17;14.60;;;12.20;;
59416;SDS011;45222;52.458;20.914;2023-08-06T04:15:06;13.50;;;11.90;;
59416;SDS011;45222;52.458;20.914;2023-08-06T04:18:54;15.20;;;12.30;;
59416;SDS011;45222;52.458;20.914;2023-08-06T04:22:43;14.90;;;12.30;;
59416;SDS011;45222;52.458;20.914;2023-08-06T04:26:31;15.70;;;12.50;;
59416;SDS011;45222;52.458;20.914;2023-08-06T04:30:19;14.20;;;11.60;;
59416;SDS011;45222;52.458;20.914;2023-08-06T04:34:07;14.30;;;12.40;;
59416;SDS011;45222;52.458;20.914;2023-08-06T04:37:55;14.70;;;12.40;;
59416;SDS011;45222;52.458;20.914;2023-08-06T04:41:43;14.30;;;12.30;;
59416;SDS011;45222;52.458;20.914;2023-08-06T04:45:31;15.50;;;12.30;;
59416;SDS011;45222;52.458;20.914;2023-08-06T04:49:19;15.90;;;13.10;;
59416;SDS011;45222;52.458;20.914;2023-08-06T04:53:08;15.40;;;12.00;;
59416;SDS011;45222;52.458;20.914;2023-08-06T04:56:56;14.20;;;11.70;;
59416;SDS011;45222;52.458;20.914;2023-08-06T05:00:44;16.70;;;13.00;;
59416;SDS011;45222;52.458;20.914;2023-08-06T05:04:32;15.00;;;12.30;;
59416;SDS011;45222;52.458;20.914;2023-08-06T05:08:21;16.00;;;13.10;;
59416;SDS011;45222;52.458;20.914;2023-08-06T05:12:09;14.60;;;11.60;;
59416;SDS011;45222;52.458;20.914;2023-08-06T05:15:57;15.50;;;12.70;;
59416;SDS011;45222;52.458;20.914;2023-08-06T05:19:45;13.80;;;12.30;;
59416;SDS011;45222;52.458;20.914;2023-08-06T05:27:19;14.40;;;11.80;;
59416;SDS011;45222;52.458;20.914;2023-08-06T05:31:07;14.70;;;11.90;;
59416;SDS011;45222;52.458;20.914;2023-08-06T05:34:56;12.80;;;11.00;;
59416;SDS011;45222;52.458;20.914;2023-08-06T05:38:44;13.10;;;11.50;;
59416;SDS011;45222;52.458;20.914;2023-08-06T05:42:32;12.60;;;10.60;;
59416;SDS011;45222;52.458;20.914;2023-08-06T05:46:20;12.40;;;10.50;;
59416;SDS011;45222;52.458;20.914;2023-08-06T05:50:09;13.80;;;10.70;;
59416;SDS011;45222;52.458;20.914;2023-08-06T05:53:57;13.70;;;10.00;;
59416;SDS011;45222;52.458;20.914;2023-08-06T05:57:48;13.70;;;10.00;;
59416;SDS011;45222;52.458;20.914;2023-08-06T06:01:42;14.20;;;10.60;;
59416;SDS011;45222;52.458;20.914;2023-08-06T06:05:30;11.80;;;10.20;;
59416;SDS011;45222;52.458;20.914;2023-08-06T06:09:18;12.20;;;10.10;;
59416;SDS011;45222;52.458;20.914;2023-08-06T06:16:53;12.90;;;10.00;;
59416;SDS011;45222;52.458;20.914;2023-08-06T06:20:40;14.20;;;9.60;;
59416;SDS011;45222;52.458;20.914;2023-08-06T06:24:28;13.30;;;9.90;;
59416;SDS011;45222;52.458;20.914;2023-08-06T06:28:17;11.30;;;9.50;;
59416;SDS011;45222;52.458;20.914;2023-08-06T06:32:05;12.00;;;10.00;;
59416;SDS011;45222;52.458;20.914;2023-08-06T06:35:53;12.10;;;9.80;;
59416;SDS011;45222;52.458;20.914;2023-08-06T06:39:41;12.00;;;10.30;;
59416;SDS011;45222;52.458;20.914;2023-08-06T06:43:30;13.40;;;9.70;;
59416;SDS011;45222;52.458;20.914;2023-08-06T06:51:04;10.60;;;9.30;;
59416;SDS011;45222;52.458;20.914;2023-08-06T06:54:52;11.80;;;9.00;;
59416;SDS011;45222;52.458;20.914;2023-08-06T06:58:40;12.50;;;9.00;;
59416;SDS011;45222;52.458;20.914;2023-08-06T07:02:28;12.00;;;9.70;;
59416;SDS011;45222;52.458;20.914;2023-08-06T07:06:16;14.50;;;9.10;;
59416;SDS011;45222;52.458;20.914;2023-08-06T07:13:55;11.60;;;8.40;;
59416;SDS011;45222;52.458;20.914;2023-08-06T07:17:44;12.40;;;9.10;;
59416;SDS011;45222;52.458;20.914;2023-08-06T07:21:31;10.30;;;8.50;;
59416;SDS011;45222;52.458;20.914;2023-08-06T07:25:19;11.60;;;8.90;;
59416;SDS011;45222;52.458;20.914;2023-08-06T07:29:07;12.70;;;8.40;;
59416;SDS011;45222;52.458;20.914;2023-08-06T07:32:55;10.80;;;8.70;;
59416;SDS011;45222;52.458;20.914;2023-08-06T07:36:44;10.80;;;8.40;;
59416;SDS011;45222;52.458;20.914;2023-08-06T07:40:32;12.80;;;8.60;;
59416;SDS011;45222;52.458;20.914;2023-08-06T07:44:21;13.40;;;8.30;;
59416;SDS011;45222;52.458;20.914;2023-08-06T07:48:09;11.30;;;8.40;;
59416;SDS011;45222;52.458;20.914;2023-08-06T07:51:57;12.50;;;8.60;;
59416;SDS011;45222;52.458;20.914;2023-08-06T07:55:47;12.10;;;8.40;;
59416;SDS011;45222;52.458;20.914;2023-08-06T07:59:36;12.00;;;7.80;;
59416;SDS011;45222;52.458;20.914;2023-08-06T08:03:24;12.00;;;8.40;;
59416;SDS011;45222;52.458;20.914;2023-08-06T08:07:12;11.60;;;8.40;;
59416;SDS011;45222;52.458;20.914;2023-08-06T08:11:01;13.30;;;8.00;;
59416;SDS011;45222;52.458;20.914;2023-08-06T08:14:49;10.10;;;7.90;;
59416;SDS011;45222;52.458;20.914;2023-08-06T08:18:38;10.30;;;7.90;;
59416;SDS011;45222;52.458;20.914;2023-08-06T08:22:26;10.70;;;7.50;;
59416;SDS011;45222;52.458;20.914;2023-08-06T08:30:00;10.00;;;8.10;;
59416;SDS011;45222;52.458;20.914;2023-08-06T08:33:49;12.00;;;7.90;;
59416;SDS011;45222;52.458;20.914;2023-08-06T08:37:38;10.80;;;7.70;;
59416;SDS011;45222;52.458;20.914;2023-08-06T08:41:26;12.50;;;7.60;;
59416;SDS011;45222;52.458;20.914;2023-08-06T08:45:16;10.90;;;8.00;;
59416;SDS011;45222;52.458;20.914;2023-08-06T08:49:06;11.90;;;7.60;;
59416;SDS011;45222;52.458;20.914;2023-08-06T08:52:54;12.50;;;7.70;;
59416;SDS011;45222;52.458;20.914;2023-08-06T08:56:42;11.30;;;8.00;;
59416;SDS011;45222;52.458;20.914;2023-08-06T09:00:30;12.00;;;7.70;;
59416;SDS011;45222;52.458;20.914;2023-08-06T09:04:20;9.60;;;7.30;;
59416;SDS011;45222;52.458;20.914;2023-08-06T09:08:08;12.00;;;7.60;;
59416;SDS011;45222;52.458;20.914;2023-08-06T09:12:06;12.20;;;7.10;;
59416;SDS011;45222;52.458;20.914;2023-08-06T09:16:00;10.80;;;6.70;;
59416;SDS011;45222;52.458;20.914;2023-08-06T09:19:48;12.10;;;7.40;;
59416;SDS011;45222;52.458;20.914;2023-08-06T09:23:36;14.20;;;6.80;;
59416;SDS011;45222;52.458;20.914;2023-08-06T09:27:24;10.00;;;6.60;;
59416;SDS011;45222;52.458;20.914;2023-08-06T09:31:12;10.80;;;6.80;;
59416;SDS011;45222;52.458;20.914;2023-08-06T09:35:00;11.40;;;6.90;;
59416;SDS011;45222;52.458;20.914;2023-08-06T09:38:49;10.60;;;6.80;;
59416;SDS011;45222;52.458;20.914;2023-08-06T09:42:37;10.40;;;6.80;;
59416;SDS011;45222;52.458;20.914;2023-08-06T09:46:30;9.50;;;6.90;;
59416;SDS011;45222;52.458;20.914;2023-08-06T09:50:20;11.00;;;6.90;;
59416;SDS011;45222;52.458;20.914;2023-08-06T09:54:08;10.60;;;7.00;;
59416;SDS011;45222;52.458;20.914;2023-08-06T09:57:58;10.70;;;7.10;;
59416;SDS011;45222;52.458;20.914;2023-08-06T10:01:46;9.90;;;7.00;;
59416;SDS011;45222;52.458;20.914;2023-08-06T10:05:34;12.10;;;6.60;;
59416;SDS011;45222;52.458;20.914;2023-08-06T10:09:23;9.70;;;7.60;;
59416;SDS011;45222;52.458;20.914;2023-08-06T10:13:11;8.40;;;6.60;;
59416;SDS011;45222;52.458;20.914;2023-08-06T10:17:01;10.40;;;6.40;;
59416;SDS011;45222;52.458;20.914;2023-08-06T10:20:50;10.90;;;6.70;;
59416;SDS011;45222;52.458;20.914;2023-08-06T10:24:51;10.60;;;6.60;;
59416;SDS011;45222;52.458;20.914;2023-08-06T10:28:40;9.30;;;6.20;;
59416;SDS011;45222;52.458;20.914;2023-08-06T10:36:36;8.80;;;6.40;;
59416;SDS011;45222;52.458;20.914;2023-08-06T10:40:24;10.50;;;6.20;;
59416;SDS011;45222;52.458;20.914;2023-08-06T10:44:15;9.50;;;6.10;;
59416;SDS011;45222;52.458;20.914;2023-08-06T10:48:04;8.30;;;5.60;;
59416;SDS011;45222;52.458;20.914;2023-08-06T10:51:52;10.80;;;5.70;;
59416;SDS011;45222;52.458;20.914;2023-08-06T10:55:39;11.10;;;5.70;;
59416;SDS011;45222;52.458;20.914;2023-08-06T10:59:27;9.80;;;5.90;;
59416;SDS011;45222;52.458;20.914;2023-08-06T11:03:15;9.50;;;5.70;;
59416;SDS011;45222;52.458;20.914;2023-08-06T11:07:03;10.40;;;5.60;;
59416;SDS011;45222;52.458;20.914;2023-08-06T11:10:52;8.20;;;5.90;;
59416;SDS011;45222;52.458;20.914;2023-08-06T11:14:41;8.40;;;5.70;;
59416;SDS011;45222;52.458;20.914;2023-08-06T11:18:29;9.50;;;5.70;;
59416;SDS011;45222;52.458;20.914;2023-08-06T11:22:17;8.40;;;5.60;;
59416;SDS011;45222;52.458;20.914;2023-08-06T11:26:05;7.80;;;5.60;;
59416;SDS011;45222;52.458;20.914;2023-08-06T11:29:53;8.20;;;5.30;;
59416;SDS011;45222;52.458;20.914;2023-08-06T11:33:41;7.80;;;5.40;;
59416;SDS011;45222;52.458;20.914;2023-08-06T11:37:29;9.00;;;5.60;;
59416;SDS011;45222;52.458;20.914;2023-08-06T11:41:16;9.60;;;5.70;;
59416;SDS011;45222;52.458;20.914;2023-08-06T11:45:06;7.90;;;5.40;;
59416;SDS011;45222;52.458;20.914;2023-08-06T11:48:55;9.50;;;5.40;;
59416;SDS011;45222;52.458;20.914;2023-08-06T11:52:44;10.20;;;5.50;;
59416;SDS011;45222;52.458;20.914;2023-08-06T11:56:31;10.70;;;5.50;;
59416;SDS011;45222;52.458;20.914;2023-08-06T12:00:20;9.60;;;5.40;;
59416;SDS011;45222;52.458;20.914;2023-08-06T12:04:11;9.80;;;5.60;;
59416;SDS011;45222;52.458;20.914;2023-08-06T12:07:59;7.20;;;5.00;;
59416;SDS011;45222;52.458;20.914;2023-08-06T12:11:49;10.00;;;5.10;;
59416;SDS011;45222;52.458;20.914;2023-08-06T12:15:38;7.90;;;5.10;;
59416;SDS011;45222;52.458;20.914;2023-08-06T12:19:26;6.60;;;4.70;;
59416;SDS011;45222;52.458;20.914;2023-08-06T12:23:15;8.70;;;4.90;;
59416;SDS011;45222;52.458;20.914;2023-08-06T12:27:03;8.60;;;5.20;;
59416;SDS011;45222;52.458;20.914;2023-08-06T12:30:52;8.20;;;5.20;;
59416;SDS011;45222;52.458;20.914;2023-08-06T12:34:40;10.60;;;5.30;;
59416;SDS011;45222;52.458;20.914;2023-08-06T12:38:29;8.30;;;5.30;;
59416;SDS011;45222;52.458;20.914;2023-08-06T12:42:18;10.10;;;5.70;;
59416;SDS011;45222;52.458;20.914;2023-08-06T12:46:06;9.30;;;5.80;;
59416;SDS011;45222;52.458;20.914;2023-08-06T12:49:54;7.50;;;5.60;;
59416;SDS011;45222;52.458;20.914;2023-08-06T12:53:42;8.80;;;5.40;;
59416;SDS011;45222;52.458;20.914;2023-08-06T12:57:30;10.30;;;5.70;;
59416;SDS011;45222;52.458;20.914;2023-08-06T13:01:19;9.20;;;5.90;;
59416;SDS011;45222;52.458;20.914;2023-08-06T13:05:07;9.80;;;5.90;;
59416;SDS011;45222;52.458;20.914;2023-08-06T13:08:56;10.40;;;5.80;;
59416;SDS011;45222;52.458;20.914;2023-08-06T13:12:44;10.80;;;6.00;;
59416;SDS011;45222;52.458;20.914;2023-08-06T13:16:32;8.00;;;5.90;;
59416;SDS011;45222;52.458;20.914;2023-08-06T13:20:20;8.40;;;5.80;;
59416;SDS011;45222;52.458;20.914;2023-08-06T13:24:08;9.20;;;6.50;;
59416;SDS011;45222;52.458;20.914;2023-08-06T13:27:56;8.90;;;6.10;;
59416;SDS011;45222;52.458;20.914;2023-08-06T13:31:44;9.10;;;5.90;;
59416;SDS011;45222;52.458;20.914;2023-08-06T13:35:32;10.80;;;6.60;;
59416;SDS011;45222;52.458;20.914;2023-08-06T13:39:20;9.70;;;6.60;;
59416;SDS011;45222;52.458;20.914;2023-08-06T13:43:07;10.10;;;6.30;;
59416;SDS011;45222;52.458;20.914;2023-08-06T13:46:55;7.60;;;6.20;;
59416;SDS011;45222;52.458;20.914;2023-08-06T13:50:43;8.20;;;6.40;;
59416;SDS011;45222;52.458;20.914;2023-08-06T13:54:31;9.10;;;6.00;;
59416;SDS011;45222;52.458;20.914;2023-08-06T13:58:19;8.20;;;6.00;;
59416;SDS011;45222;52.458;20.914;2023-08-06T14:02:08;9.30;;;5.90;;
59416;SDS011;45222;52.458;20.914;2023-08-06T14:05:56;9.20;;;5.90;;
59416;SDS011;45222;52.458;20.914;2023-08-06T14:09:44;8.40;;;5.20;;
59416;SDS011;45222;52.458;20.914;2023-08-06T14:13:34;8.00;;;5.10;;
59416;SDS011;45222;52.458;20.914;2023-08-06T14:17:21;7.70;;;5.10;;
59416;SDS011;45222;52.458;20.914;2023-08-06T14:21:09;8.00;;;5.10;;
59416;SDS011;45222;52.458;20.914;2023-08-06T14:24:57;8.90;;;4.60;;
59416;SDS011;45222;52.458;20.914;2023-08-06T14:28:45;7.90;;;4.70;;
59416;SDS011;45222;52.458;20.914;2023-08-06T14:32:33;8.00;;;4.80;;
59416;SDS011;45222;52.458;20.914;2023-08-06T14:36:22;6.90;;;4.60;;
59416;SDS011;45222;52.458;20.914;2023-08-06T14:40:11;6.50;;;4.50;;
59416;SDS011;45222;52.458;20.914;2023-08-06T14:43:59;7.60;;;4.60;;
59416;SDS011;45222;52.458;20.914;2023-08-06T14:47:47;6.80;;;4.20;;
59416;SDS011;45222;52.458;20.914;2023-08-06T14:51:35;5.50;;;4.20;;
59416;SDS011;45222;52.458;20.914;2023-08-06T14:55:26;7.10;;;4.50;;
59416;SDS011;45222;52.458;20.914;2023-08-06T14:59:15;8.80;;;4.40;;
59416;SDS011;45222;52.458;20.914;2023-08-06T15:03:03;9.90;;;4.30;;
59416;SDS011;45222;52.458;20.914;2023-08-06T15:06:51;6.10;;;3.80;;
59416;SDS011;45222;52.458;20.914;2023-08-06T15:10:39;8.10;;;3.90;;
59416;SDS011;45222;52.458;20.914;2023-08-06T15:14:27;5.90;;;3.90;;
59416;SDS011;45222;52.458;20.914;2023-08-06T15:18:15;6.10;;;3.80;;
59416;SDS011;45222;52.458;20.914;2023-08-06T15:22:04;7.80;;;3.90;;
59416;SDS011;45222;52.458;20.914;2023-08-06T15:25:52;7.30;;;4.00;;
59416;SDS011;45222;52.458;20.914;2023-08-06T15:29:40;6.20;;;3.60;;
59416;SDS011;45222;52.458;20.914;2023-08-06T15:33:28;6.20;;;3.30;;
59416;SDS011;45222;52.458;20.914;2023-08-06T15:37:16;6.50;;;3.00;;
59416;SDS011;45222;52.458;20.914;2023-08-06T15:41:03;6.10;;;3.00;;
59416;SDS011;45222;52.458;20.914;2023-08-06T15:44:51;4.70;;;2.70;;
59416;SDS011;45222;52.458;20.914;2023-08-06T15:48:39;3.40;;;2.00;;
59416;SDS011;45222;52.458;20.914;2023-08-06T15:52:27;4.90;;;2.40;;
59416;SDS011;45222;52.458;20.914;2023-08-06T15:56:15;3.40;;;1.80;;
59416;SDS011;45222;52.458;20.914;2023-08-06T16:00:03;3.90;;;1.80;;
59416;SDS011;45222;52.458;20.914;2023-08-06T16:03:52;2.60;;;1.70;;
59416;SDS011;45222;52.458;20.914;2023-08-06T16:07:40;2.90;;;1.60;;
59416;SDS011;45222;52.458;20.914;2023-08-06T16:15:14;2.20;;;1.40;;
59416;SDS011;45222;52.458;20.914;2023-08-06T16:19:04;5.70;;;1.50;;
59416;SDS011;45222;52.458;20.914;2023-08-06T16:22:52;2.50;;;1.20;;
59416;SDS011;45222;52.458;20.914;2023-08-06T16:26:40;2.40;;;1.30;;
59416;SDS011;45222;52.458;20.914;2023-08-06T16:30:27;2.50;;;1.40;;
59416;SDS011;45222;52.458;20.914;2023-08-06T16:34:16;2.10;;;1.10;;
59416;SDS011;45222;52.458;20.914;2023-08-06T16:38:04;2.20;;;1.10;;
59416;SDS011;45222;52.458;20.914;2023-08-06T16:41:52;2.70;;;1.00;;
59416;SDS011;45222;52.458;20.914;2023-08-06T16:45:42;2.10;;;1.00;;
59416;SDS011;45222;52.458;20.914;2023-08-06T16:49:30;1.40;;;1.10;;
59416;SDS011;45222;52.458;20.914;2023-08-06T16:53:18;4.70;;;1.10;;
59416;SDS011;45222;52.458;20.914;2023-08-06T16:57:07;2.00;;;1.20;;
59416;SDS011;45222;52.458;20.914;2023-08-06T17:00:55;3.00;;;1.10;;
59416;SDS011;45222;52.458;20.914;2023-08-06T17:04:48;2.10;;;1.00;;
59416;SDS011;45222;52.458;20.914;2023-08-06T17:08:36;1.00;;;0.90;;
59416;SDS011;45222;52.458;20.914;2023-08-06T17:16:11;2.70;;;1.00;;
59416;SDS011;45222;52.458;20.914;2023-08-06T17:19:59;1.70;;;1.00;;
59416;SDS011;45222;52.458;20.914;2023-08-06T17:23:47;1.60;;;1.00;;
59416;SDS011;45222;52.458;20.914;2023-08-06T17:27:35;1.30;;;0.90;;
59416;SDS011;45222;52.458;20.914;2023-08-06T17:31:23;1.90;;;1.00;;
59416;SDS011;45222;52.458;20.914;2023-08-06T17:38:58;1.00;;;0.90;;
59416;SDS011;45222;52.458;20.914;2023-08-06T17:42:46;1.70;;;0.90;;
59416;SDS011;45222;52.458;20.914;2023-08-06T17:46:34;3.50;;;1.00;;
59416;SDS011;45222;52.458;20.914;2023-08-06T17:50:22;2.60;;;0.90;;
59416;SDS011;45222;52.458;20.914;2023-08-06T17:54:10;0.70;;;0.70;;
59416;SDS011;45222;52.458;20.914;2023-08-06T17:57:58;1.20;;;0.70;;
59416;SDS011;45222;52.458;20.914;2023-08-06T18:01:47;1.10;;;0.80;;
59416;SDS011;45222;52.458;20.914;2023-08-06T18:05:35;2.30;;;1.00;;
59416;SDS011;45222;52.458;20.914;2023-08-06T18:09:23;2.70;;;1.00;;
59416;SDS011;45222;52.458;20.914;2023-08-06T18:13:11;2.80;;;1.00;;
59416;SDS011;45222;52.458;20.914;2023-08-06T18:17:00;1.50;;;1.00;;
59416;SDS011;45222;52.458;20.914;2023-08-06T18:24:35;1.30;;;1.10;;
59416;SDS011;45222;52.458;20.914;2023-08-06T18:28:23;2.90;;;1.30;;
59416;SDS011;45222;52.458;20.914;2023-08-06T18:32:11;1.40;;;1.20;;
59416;SDS011;45222;52.458;20.914;2023-08-06T18:39:48;1.70;;;1.40;;
59416;SDS011;45222;52.458;20.914;2023-08-06T18:43:37;2.10;;;1.40;;
59416;SDS011;45222;52.458;20.914;2023-08-06T18:47:26;3.70;;;1.70;;
59416;SDS011;45222;52.458;20.914;2023-08-06T18:51:14;2.90;;;1.50;;
59416;SDS011;45222;52.458;20.914;2023-08-06T18:55:05;3.20;;;1.60;;
59416;SDS011;45222;52.458;20.914;2023-08-06T18:58:55;1.60;;;1.50;;
59416;SDS011;45222;52.458;20.914;2023-08-06T19:02:43;2.90;;;2.00;;
59416;SDS011;45222;52.458;20.914;2023-08-06T19:10:18;3.10;;;2.40;;
59416;SDS011;45222;52.458;20.914;2023-08-06T19:14:07;2.80;;;2.20;;
59416;SDS011;45222;52.458;20.914;2023-08-06T19:17:55;4.00;;;2.20;;
59416;SDS011;45222;52.458;20.914;2023-08-06T19:21:43;3.90;;;2.50;;
59416;SDS011;45222;52.458;20.914;2023-08-06T19:25:32;3.60;;;2.40;;
59416;SDS011;45222;52.458;20.914;2023-08-06T19:29:28;2.60;;;1.70;;
59416;SDS011;45222;52.458;20.914;2023-08-06T19:33:17;2.10;;;1.60;;
59416;SDS011;45222;52.458;20.914;2023-08-06T19:37:06;2.30;;;1.30;;
59416;SDS011;45222;52.458;20.914;2023-08-06T19:41:02;2.30;;;1.60;;
